sensor_id;sensor_type;location;lat;lon;timestamp;pressure;altitude;pressure_sealevel;temperature;humidity
5952;BME280;3001;42.622;23.194;2023-04-08T00:01:59;91286.44;;;6.79;73.45
5952;BME280;3001;42.622;23.194;2023-04-08T00:04:26;91286.91;;;6.39;73.84
5952;BME280;3001;42.622;23.194;2023-04-08T00:06:54;91290.09;;;6.31;75.19
5952;BME280;3001;42.622;23.194;2023-04-08T00:09:21;91294.81;;;6.24;75.20
5952;BME280;3001;42.622;23.194;2023-04-08T00:11:47;91298.38;;;6.28;74.09
5952;BME280;3001;42.622;23.194;2023-04-08T00:14:14;91289.47;;;6.16;74.30
5952;BME280;3001;42.622;23.194;2023-04-08T00:16:41;91286.28;;;6.00;74.09
5952;BME280;3001;42.622;23.194;2023-04-08T00:19:07;91279.91;;;5.93;73.89
5952;BME280;3001;42.622;23.194;2023-04-08T00:21:34;91279.41;;;5.91;74.45
5952;BME280;3001;42.622;23.194;2023-04-08T00:24:02;91285.19;;;5.83;74.33
5952;BME280;3001;42.622;23.194;2023-04-08T00:26:29;91286.47;;;5.80;73.78
5952;BME280;3001;42.622;23.194;2023-04-08T00:28:56;91283.84;;;5.85;74.08
5952;BME280;3001;42.622;23.194;2023-04-08T00:31:23;91254.03;;;5.74;73.49
5952;BME280;3001;42.622;23.194;2023-04-08T00:33:49;91282.06;;;5.86;74.18
5952;BME280;3001;42.622;23.194;2023-04-08T00:36:16;91287.38;;;5.94;74.59
5952;BME280;3001;42.622;23.194;2023-04-08T00:38:43;91279.16;;;5.92;75.52
5952;BME280;3001;42.622;23.194;2023-04-08T00:41:11;91283.28;;;5.93;75.01
5952;BME280;3001;42.622;23.194;2023-04-08T00:43:38;91277.06;;;5.94;76.03
5952;BME280;3001;42.622;23.194;2023-04-08T00:46:05;91279.38;;;5.96;75.31
5952;BME280;3001;42.622;23.194;2023-04-08T00:48:32;91283.31;;;5.88;76.38
5952;BME280;3001;42.622;23.194;2023-04-08T00:50:59;91279.59;;;5.99;76.72
5952;BME280;3001;42.622;23.194;2023-04-08T00:53:26;91280.59;;;6.03;76.44
5952;BME280;3001;42.622;23.194;2023-04-08T00:55:53;91276.16;;;6.09;76.74
5952;BME280;3001;42.622;23.194;2023-04-08T00:58:21;91277.78;;;6.00;77.61
5952;BME280;3001;42.622;23.194;2023-04-08T01:00:54;91279.97;;;6.11;77.66
5952;BME280;3001;42.622;23.194;2023-04-08T01:03:28;91283.09;;;6.08;78.02
5952;BME280;3001;42.622;23.194;2023-04-08T01:06:06;91274.59;;;6.31;77.60
5952;BME280;3001;42.622;23.194;2023-04-08T01:08:37;91276.69;;;6.06;78.69
5952;BME280;3001;42.622;23.194;2023-04-08T01:11:08;91281.25;;;6.14;78.12
5952;BME280;3001;42.622;23.194;2023-04-08T01:13:39;91278.94;;;6.36;74.92
5952;BME280;3001;42.622;23.194;2023-04-08T01:16:09;91279.66;;;6.41;74.64
5952;BME280;3001;42.622;23.194;2023-04-08T01:18:37;91282.31;;;6.36;75.35
5952;BME280;3001;42.622;23.194;2023-04-08T01:21:05;91283.47;;;6.49;74.75
5952;BME280;3001;42.622;23.194;2023-04-08T01:23:39;91286.25;;;6.52;74.88
5952;BME280;3001;42.622;23.194;2023-04-08T01:26:12;91287.81;;;6.72;72.49
5952;BME280;3001;42.622;23.194;2023-04-08T01:28:48;91280.25;;;6.98;72.19
5952;BME280;3001;42.622;23.194;2023-04-08T01:31:17;91277.22;;;6.73;73.69
5952;BME280;3001;42.622;23.194;2023-04-08T01:33:45;91292.03;;;6.86;73.93
5952;BME280;3001;42.622;23.194;2023-04-08T01:36:13;91289.09;;;6.92;74.37
5952;BME280;3001;42.622;23.194;2023-04-08T01:38:41;91290.66;;;6.93;74.33
5952;BME280;3001;42.622;23.194;2023-04-08T01:41:10;91290.88;;;6.97;74.03
5952;BME280;3001;42.622;23.194;2023-04-08T01:43:38;91296.28;;;6.95;73.94
5952;BME280;3001;42.622;23.194;2023-04-08T01:46:06;91296.03;;;6.97;73.92
5952;BME280;3001;42.622;23.194;2023-04-08T01:48:34;91293.09;;;7.03;73.85
5952;BME280;3001;42.622;23.194;2023-04-08T01:51:03;91295.91;;;6.83;74.93
5952;BME280;3001;42.622;23.194;2023-04-08T01:53:30;91301.63;;;6.80;74.93
5952;BME280;3001;42.622;23.194;2023-04-08T01:56:02;91303.66;;;6.83;75.96
5952;BME280;3001;42.622;23.194;2023-04-08T01:58:36;91302.75;;;6.75;76.12
5952;BME280;3001;42.622;23.194;2023-04-08T02:01:04;91308.75;;;6.70;75.90
5952;BME280;3001;42.622;23.194;2023-04-08T02:03:33;91308.94;;;6.55;76.85
5952;BME280;3001;42.622;23.194;2023-04-08T02:06:01;91315.00;;;6.64;75.88
5952;BME280;3001;42.622;23.194;2023-04-08T02:08:27;91316.22;;;6.72;74.96
5952;BME280;3001;42.622;23.194;2023-04-08T02:10:54;91316.97;;;6.72;74.97
5952;BME280;3001;42.622;23.194;2023-04-08T02:13:21;91318.81;;;6.72;74.46
5952;BME280;3001;42.622;23.194;2023-04-08T02:15:51;91328.25;;;6.58;75.50
5952;BME280;3001;42.622;23.194;2023-04-08T02:18:24;91314.75;;;6.42;77.15
5952;BME280;3001;42.622;23.194;2023-04-08T02:20:57;91321.28;;;6.58;75.75
5952;BME280;3001;42.622;23.194;2023-04-08T02:23:28;91310.00;;;6.49;76.31
5952;BME280;3001;42.622;23.194;2023-04-08T02:26:00;91314.84;;;6.32;76.22
5952;BME280;3001;42.622;23.194;2023-04-08T02:28:29;91319.47;;;6.35;76.20
5952;BME280;3001;42.622;23.194;2023-04-08T02:30:58;91314.13;;;6.27;77.10
5952;BME280;3001;42.622;23.194;2023-04-08T02:33:26;91318.53;;;6.26;77.18
5952;BME280;3001;42.622;23.194;2023-04-08T02:35:53;91318.03;;;6.71;75.53
5952;BME280;3001;42.622;23.194;2023-04-08T02:38:21;91319.03;;;6.52;75.88
5952;BME280;3001;42.622;23.194;2023-04-08T02:40:49;91317.81;;;6.44;76.29
5952;BME280;3001;42.622;23.194;2023-04-08T02:43:15;91317.75;;;6.49;76.49
5952;BME280;3001;42.622;23.194;2023-04-08T02:45:43;91300.53;;;6.45;76.75
5952;BME280;3001;42.622;23.194;2023-04-08T02:48:11;91319.56;;;6.72;76.62
5952;BME280;3001;42.622;23.194;2023-04-08T02:50:37;91309.81;;;6.46;77.49
5952;BME280;3001;42.622;23.194;2023-04-08T02:53:04;91307.72;;;6.48;77.57
5952;BME280;3001;42.622;23.194;2023-04-08T02:55:31;91315.50;;;6.66;77.35
5952;BME280;3001;42.622;23.194;2023-04-08T02:57:58;91317.38;;;6.61;77.18
5952;BME280;3001;42.622;23.194;2023-04-08T03:00:24;91320.06;;;6.74;76.67
5952;BME280;3001;42.622;23.194;2023-04-08T03:02:51;91321.06;;;6.78;76.35
5952;BME280;3001;42.622;23.194;2023-04-08T03:05:19;91316.16;;;6.77;76.54
5952;BME280;3001;42.622;23.194;2023-04-08T03:07:46;91309.06;;;6.87;76.61
5952;BME280;3001;42.622;23.194;2023-04-08T03:10:13;91315.00;;;6.64;77.32
5952;BME280;3001;42.622;23.194;2023-04-08T03:12:39;91312.38;;;6.69;76.19
5952;BME280;3001;42.622;23.194;2023-04-08T03:15:07;91305.50;;;6.83;74.97
5952;BME280;3001;42.622;23.194;2023-04-08T03:17:33;91308.44;;;6.95;74.50
5952;BME280;3001;42.622;23.194;2023-04-08T03:20:00;91303.66;;;6.83;74.67
5952;BME280;3001;42.622;23.194;2023-04-08T03:22:30;91306.75;;;6.85;74.59
5952;BME280;3001;42.622;23.194;2023-04-08T03:24:57;91302.19;;;6.78;75.39
5952;BME280;3001;42.622;23.194;2023-04-08T03:27:23;91305.50;;;6.83;74.38
5952;BME280;3001;42.622;23.194;2023-04-08T03:29:50;91312.00;;;6.99;72.27
5952;BME280;3001;42.622;23.194;2023-04-08T03:32:18;91315.63;;;6.98;72.81
5952;BME280;3001;42.622;23.194;2023-04-08T03:34:45;91312.00;;;6.99;73.10
5952;BME280;3001;42.622;23.194;2023-04-08T03:37:11;91306.31;;;6.78;73.23
5952;BME280;3001;42.622;23.194;2023-04-08T03:39:39;91317.50;;;6.74;73.35
5952;BME280;3001;42.622;23.194;2023-04-08T03:42:06;91311.81;;;6.72;73.71
5952;BME280;3001;42.622;23.194;2023-04-08T03:44:32;91308.22;;;6.91;72.05
5952;BME280;3001;42.622;23.194;2023-04-08T03:46:59;91305.81;;;6.77;73.02
5952;BME280;3001;42.622;23.194;2023-04-08T03:49:26;91311.06;;;6.90;72.63
5952;BME280;3001;42.622;23.194;2023-04-08T03:51:52;91311.06;;;6.90;71.65
5952;BME280;3001;42.622;23.194;2023-04-08T03:54:19;91315.50;;;7.08;71.28
5952;BME280;3001;42.622;23.194;2023-04-08T03:56:48;91314.84;;;6.79;72.29
5952;BME280;3001;42.622;23.194;2023-04-08T03:59:15;91314.59;;;6.57;73.13
5952;BME280;3001;42.622;23.194;2023-04-08T04:01:42;91313.09;;;6.51;73.48
5952;BME280;3001;42.622;23.194;2023-04-08T04:04:08;91309.81;;;6.46;75.40
5952;BME280;3001;42.622;23.194;2023-04-08T04:06:35;91312.34;;;6.51;74.14
5952;BME280;3001;42.622;23.194;2023-04-08T04:09:02;91314.75;;;6.42;74.61
5952;BME280;3001;42.622;23.194;2023-04-08T04:11:28;91314.97;;;6.46;75.49
5952;BME280;3001;42.622;23.194;2023-04-08T04:13:56;91320.78;;;6.56;75.96
5952;BME280;3001;42.622;23.194;2023-04-08T04:16:23;91320.00;;;6.32;77.07
5952;BME280;3001;42.622;23.194;2023-04-08T04:18:51;91314.91;;;6.27;76.41
5952;BME280;3001;42.622;23.194;2023-04-08T04:21:18;91319.78;;;6.29;76.75
5952;BME280;3001;42.622;23.194;2023-04-08T04:23:44;91320.22;;;6.36;75.94
5952;BME280;3001;42.622;23.194;2023-04-08T04:26:11;91320.78;;;6.56;75.17
5952;BME280;3001;42.622;23.194;2023-04-08T04:28:38;91320.22;;;6.36;76.35
5952;BME280;3001;42.622;23.194;2023-04-08T04:31:06;91320.53;;;6.29;77.23
5952;BME280;3001;42.622;23.194;2023-04-08T04:33:32;91318.72;;;6.53;75.50
5952;BME280;3001;42.622;23.194;2023-04-08T04:35:59;91321.31;;;6.53;76.01
5952;BME280;3001;42.622;23.194;2023-04-08T04:38:26;91321.69;;;6.42;76.72
5952;BME280;3001;42.622;23.194;2023-04-08T04:40:52;91322.34;;;6.52;76.03
5952;BME280;3001;42.622;23.194;2023-04-08T04:43:19;91325.81;;;6.66;75.72
5952;BME280;3001;42.622;23.194;2023-04-08T04:45:46;91326.03;;;6.46;75.88
5952;BME280;3001;42.622;23.194;2023-04-08T04:48:14;91317.94;;;6.34;75.79
5952;BME280;3001;42.622;23.194;2023-04-08T04:50:40;91330.16;;;6.47;75.39
5952;BME280;3001;42.622;23.194;2023-04-08T04:53:07;91318.53;;;6.50;74.75
5952;BME280;3001;42.622;23.194;2023-04-08T04:55:34;91320.25;;;6.59;76.22
5952;BME280;3001;42.622;23.194;2023-04-08T04:58:01;91322.97;;;6.68;76.72
5952;BME280;3001;42.622;23.194;2023-04-08T05:00:27;91325.81;;;6.89;76.28
5952;BME280;3001;42.622;23.194;2023-04-08T05:02:54;91329.63;;;6.92;75.80
5952;BME280;3001;42.622;23.194;2023-04-08T05:05:22;91336.69;;;6.86;75.98
5952;BME280;3001;42.622;23.194;2023-04-08T05:07:48;91336.00;;;6.99;76.32
5952;BME280;3001;42.622;23.194;2023-04-08T05:10:15;91332.94;;;6.97;77.15
5952;BME280;3001;42.622;23.194;2023-04-08T05:12:42;91339.06;;;7.01;76.64
5952;BME280;3001;42.622;23.194;2023-04-08T05:15:09;91336.06;;;6.94;77.18
5952;BME280;3001;42.622;23.194;2023-04-08T05:17:36;91334.13;;;7.05;76.99
5952;BME280;3001;42.622;23.194;2023-04-08T05:20:03;91333.66;;;7.03;76.23
5952;BME280;3001;42.622;23.194;2023-04-08T05:22:31;91334.13;;;7.05;75.93
5952;BME280;3001;42.622;23.194;2023-04-08T05:24:58;91338.78;;;7.26;75.22
5952;BME280;3001;42.622;23.194;2023-04-08T05:27:25;91332.59;;;7.22;75.42
5952;BME280;3001;42.622;23.194;2023-04-08T05:29:52;91334.44;;;7.22;75.57
5952;BME280;3001;42.622;23.194;2023-04-08T05:32:18;91336.19;;;7.45;74.72
5952;BME280;3001;42.622;23.194;2023-04-08T05:34:45;91328.09;;;7.51;75.27
5952;BME280;3001;42.622;23.194;2023-04-08T05:37:12;91341.31;;;7.63;74.19
5952;BME280;3001;42.622;23.194;2023-04-08T05:39:40;91339.22;;;7.65;74.47
5952;BME280;3001;42.622;23.194;2023-04-08T05:42:07;91336.72;;;7.60;74.32
5952;BME280;3001;42.622;23.194;2023-04-08T05:44:34;91346.16;;;7.70;73.83
5952;BME280;3001;42.622;23.194;2023-04-08T05:47:00;91339.16;;;7.70;74.23
5952;BME280;3001;42.622;23.194;2023-04-08T05:49:27;91341.00;;;8.02;73.29
5952;BME280;3001;42.622;23.194;2023-04-08T05:51:54;91345.22;;;7.98;71.96
5952;BME280;3001;42.622;23.194;2023-04-08T05:54:20;91343.75;;;7.92;72.20
5952;BME280;3001;42.622;23.194;2023-04-08T05:56:48;91339.50;;;7.82;72.77
5952;BME280;3001;42.622;23.194;2023-04-08T05:59:15;91333.13;;;7.75;73.44
5952;BME280;3001;42.622;23.194;2023-04-08T06:01:42;91332.59;;;7.78;73.67
5952;BME280;3001;42.622;23.194;2023-04-08T06:04:08;91323.66;;;7.52;75.36
5952;BME280;3001;42.622;23.194;2023-04-08T06:06:36;91326.03;;;7.67;75.72
5952;BME280;3001;42.622;23.194;2023-04-08T06:09:03;91332.66;;;7.73;75.72
5952;BME280;3001;42.622;23.194;2023-04-08T06:11:30;91331.53;;;7.79;75.50
5952;BME280;3001;42.622;23.194;2023-04-08T06:13:58;91329.34;;;7.86;75.27
5952;BME280;3001;42.622;23.194;2023-04-08T06:16:24;91332.38;;;8.06;72.99
5952;BME280;3001;42.622;23.194;2023-04-08T06:18:51;91335.72;;;8.25;73.28
5952;BME280;3001;42.622;23.194;2023-04-08T06:21:18;91339.47;;;8.33;73.01
5952;BME280;3001;42.622;23.194;2023-04-08T06:23:44;91340.97;;;8.20;72.16
5952;BME280;3001;42.622;23.194;2023-04-08T06:26:11;91339.28;;;8.29;71.58
5952;BME280;3001;42.622;23.194;2023-04-08T06:28:38;91347.91;;;8.25;71.54
5952;BME280;3001;42.622;23.194;2023-04-08T06:31:06;91340.25;;;8.47;71.79
5952;BME280;3001;42.622;23.194;2023-04-08T06:33:33;91339.41;;;8.64;71.65
5952;BME280;3001;42.622;23.194;2023-04-08T06:36:01;91340.97;;;8.79;70.61
5952;BME280;3001;42.622;23.194;2023-04-08T06:38:28;91343.34;;;8.75;68.96
5952;BME280;3001;42.622;23.194;2023-04-08T06:40:55;91343.66;;;8.60;70.27
5952;BME280;3001;42.622;23.194;2023-04-08T06:43:21;91356.19;;;8.67;70.11
5952;BME280;3001;42.622;23.194;2023-04-08T06:45:48;91349.50;;;8.93;69.56
5952;BME280;3001;42.622;23.194;2023-04-08T06:48:17;91358.72;;;8.85;69.15
5952;BME280;3001;42.622;23.194;2023-04-08T06:50:44;91352.34;;;9.05;68.36
5952;BME280;3001;42.622;23.194;2023-04-08T06:53:10;91351.72;;;8.99;68.08
5952;BME280;3001;42.622;23.194;2023-04-08T06:55:37;91354.09;;;8.82;69.77
5952;BME280;3001;42.622;23.194;2023-04-08T06:58:04;91356.97;;;8.94;70.18
5952;BME280;3001;42.622;23.194;2023-04-08T07:00:30;91358.72;;;8.99;70.99
5952;BME280;3001;42.622;23.194;2023-04-08T07:02:58;91350.81;;;9.17;71.12
5952;BME280;3001;42.622;23.194;2023-04-08T07:05:26;91352.53;;;9.35;70.48
5952;BME280;3001;42.622;23.194;2023-04-08T07:07:53;91354.25;;;9.40;71.01
5952;BME280;3001;42.622;23.194;2023-04-08T07:10:19;91349.16;;;9.48;70.44
5952;BME280;3001;42.622;23.194;2023-04-08T07:12:46;91349.19;;;9.70;70.22
5952;BME280;3001;42.622;23.194;2023-04-08T07:15:13;91360.72;;;9.64;69.85
5952;BME280;3001;42.622;23.194;2023-04-08T07:17:39;91362.63;;;9.72;69.75
5952;BME280;3001;42.622;23.194;2023-04-08T07:20:07;91362.84;;;9.62;70.22
5952;BME280;3001;42.622;23.194;2023-04-08T07:22:35;91369.56;;;9.63;69.94
5952;BME280;3001;42.622;23.194;2023-04-08T07:25:02;91370.72;;;9.71;70.31
5952;BME280;3001;42.622;23.194;2023-04-08T07:27:28;91370.25;;;10.04;68.38
5952;BME280;3001;42.622;23.194;2023-04-08T07:29:55;91375.03;;;9.97;68.12
5952;BME280;3001;42.622;23.194;2023-04-08T07:32:22;91376.59;;;10.20;67.75
5952;BME280;3001;42.622;23.194;2023-04-08T07:34:49;91377.56;;;10.02;68.78
5952;BME280;3001;42.622;23.194;2023-04-08T07:37:15;91385.94;;;10.21;67.31
5952;BME280;3001;42.622;23.194;2023-04-08T07:39:43;91380.50;;;10.31;67.22
5952;BME280;3001;42.622;23.194;2023-04-08T07:42:10;91387.34;;;10.27;67.51
5952;BME280;3001;42.622;23.194;2023-04-08T07:44:37;91387.69;;;10.34;67.32
5952;BME280;3001;42.622;23.194;2023-04-08T07:47:04;91391.59;;;10.23;67.90
5952;BME280;3001;42.622;23.194;2023-04-08T07:49:30;91384.28;;;10.25;67.53
5952;BME280;3001;42.622;23.194;2023-04-08T07:51:57;91391.66;;;10.32;68.34
5952;BME280;3001;42.622;23.194;2023-04-08T07:54:24;91391.00;;;10.48;65.82
5952;BME280;3001;42.622;23.194;2023-04-08T07:56:52;91395.00;;;10.54;64.09
5952;BME280;3001;42.622;23.194;2023-04-08T07:59:19;91401.94;;;10.67;65.08
5952;BME280;3001;42.622;23.194;2023-04-08T08:01:45;91403.88;;;10.83;65.95
5952;BME280;3001;42.622;23.194;2023-04-08T08:04:12;91393.38;;;10.97;65.76
5952;BME280;3001;42.622;23.194;2023-04-08T08:06:39;91401.53;;;11.12;66.67
5952;BME280;3001;42.622;23.194;2023-04-08T08:09:05;91401.03;;;11.41;66.44
5952;BME280;3001;42.622;23.194;2023-04-08T08:11:32;91402.59;;;11.50;65.33
5952;BME280;3001;42.622;23.194;2023-04-08T08:14:00;91400.63;;;11.56;64.92
5952;BME280;3001;42.622;23.194;2023-04-08T08:16:27;91409.25;;;11.65;64.68
5952;BME280;3001;42.622;23.194;2023-04-08T08:18:54;91402.81;;;11.71;64.98
5952;BME280;3001;42.622;23.194;2023-04-08T08:21:21;91402.22;;;11.74;64.62
5952;BME280;3001;42.622;23.194;2023-04-08T08:23:48;91403.75;;;11.75;64.46
5952;BME280;3001;42.622;23.194;2023-04-08T08:26:14;91405.28;;;11.76;64.47
5952;BME280;3001;42.622;23.194;2023-04-08T08:28:41;91410.50;;;11.84;64.38
5952;BME280;3001;42.622;23.194;2023-04-08T08:31:09;91400.09;;;11.84;64.34
5952;BME280;3001;42.622;23.194;2023-04-08T08:33:36;91401.75;;;11.80;65.11
5952;BME280;3001;42.622;23.194;2023-04-08T08:36:03;91404.78;;;11.65;64.65
5952;BME280;3001;42.622;23.194;2023-04-08T08:38:31;91402.81;;;11.71;64.85
5952;BME280;3001;42.622;23.194;2023-04-08T08:40:59;91398.84;;;11.82;64.52
5952;BME280;3001;42.622;23.194;2023-04-08T08:43:27;91399.94;;;11.89;64.52
5952;BME280;3001;42.622;23.194;2023-04-08T08:45:54;91405.59;;;11.91;64.67
5952;BME280;3001;42.622;23.194;2023-04-08T08:48:22;91406.81;;;11.85;64.70
5952;BME280;3001;42.622;23.194;2023-04-08T08:50:49;91411.72;;;12.03;63.88
5952;BME280;3001;42.622;23.194;2023-04-08T08:53:16;91413.13;;;12.01;64.64
5952;BME280;3001;42.622;23.194;2023-04-08T08:55:44;91407.00;;;11.97;65.11
5952;BME280;3001;42.622;23.194;2023-04-08T08:58:10;91405.78;;;12.11;64.51
5952;BME280;3001;42.622;23.194;2023-04-08T09:00:38;91415.72;;;12.35;64.83
5952;BME280;3001;42.622;23.194;2023-04-08T09:03:16;91395.94;;;12.34;64.46
5952;BME280;3001;42.622;23.194;2023-04-08T09:05:49;91412.97;;;12.48;64.23
5952;BME280;3001;42.622;23.194;2023-04-08T09:08:26;91419.84;;;12.53;64.44
5952;BME280;3001;42.622;23.194;2023-04-08T09:10:53;91418.13;;;12.74;63.73
5952;BME280;3001;42.622;23.194;2023-04-08T09:13:21;91420.72;;;12.99;62.86
5952;BME280;3001;42.622;23.194;2023-04-08T09:16:01;91414.19;;;13.22;62.00
5952;BME280;3001;42.622;23.194;2023-04-08T09:18:30;91421.66;;;13.41;60.48
5952;BME280;3001;42.622;23.194;2023-04-08T09:21:00;91411.25;;;13.32;62.18
5952;BME280;3001;42.622;23.194;2023-04-08T09:23:44;91408.25;;;13.51;60.69
5952;BME280;3001;42.622;23.194;2023-04-08T09:26:12;91416.19;;;13.63;59.14
5952;BME280;3001;42.622;23.194;2023-04-08T09:28:40;91410.63;;;13.64;59.95
5952;BME280;3001;42.622;23.194;2023-04-08T09:31:21;91410.34;;;13.66;60.50
5952;BME280;3001;42.622;23.194;2023-04-08T09:33:48;91413.34;;;13.76;60.38
5952;BME280;3001;42.622;23.194;2023-04-08T09:36:17;91398.28;;;13.82;60.66
5952;BME280;3001;42.622;23.194;2023-04-08T09:38:44;91409.06;;;14.00;60.53
5952;BME280;3001;42.622;23.194;2023-04-08T09:41:13;91408.50;;;14.15;60.26
5952;BME280;3001;42.622;23.194;2023-04-08T09:43:42;91403.72;;;14.17;58.17
5952;BME280;3001;42.622;23.194;2023-04-08T09:46:13;91394.03;;;14.38;58.26
5952;BME280;3001;42.622;23.194;2023-04-08T09:48:46;91402.44;;;14.64;57.47
5952;BME280;3001;42.622;23.194;2023-04-08T09:51:17;91400.72;;;14.80;57.13
5952;BME280;3001;42.622;23.194;2023-04-08T09:53:46;91397.41;;;14.92;56.08
5952;BME280;3001;42.622;23.194;2023-04-08T09:56:15;91398.59;;;14.94;55.17
5952;BME280;3001;42.622;23.194;2023-04-08T09:58:50;91398.94;;;15.05;56.86
5952;BME280;3001;42.622;23.194;2023-04-08T10:01:21;91392.63;;;14.94;55.66
5952;BME280;3001;42.622;23.194;2023-04-08T10:03:53;91387.25;;;14.90;54.81
5952;BME280;3001;42.622;23.194;2023-04-08T10:06:26;91392.78;;;14.77;54.35
5952;BME280;3001;42.622;23.194;2023-04-08T10:08:54;91395.63;;;14.84;55.22
5952;BME280;3001;42.622;23.194;2023-04-08T10:11:22;91389.44;;;14.88;54.69
5952;BME280;3001;42.622;23.194;2023-04-08T10:13:49;91388.31;;;14.77;55.03
5952;BME280;3001;42.622;23.194;2023-04-08T10:16:21;91387.28;;;14.70;55.71
5952;BME280;3001;42.622;23.194;2023-04-08T10:18:49;91379.34;;;14.66;55.35
5952;BME280;3001;42.622;23.194;2023-04-08T10:21:38;91368.75;;;14.63;55.67
5952;BME280;3001;42.622;23.194;2023-04-08T10:24:08;91374.56;;;14.80;56.32
5952;BME280;3001;42.622;23.194;2023-04-08T10:26:37;91378.63;;;14.78;56.35
5952;BME280;3001;42.622;23.194;2023-04-08T10:29:30;91374.06;;;14.54;55.88
5952;BME280;3001;42.622;23.194;2023-04-08T10:31:56;91371.72;;;14.61;55.00
5952;BME280;3001;42.622;23.194;2023-04-08T10:34:24;91368.88;;;14.66;54.34
5952;BME280;3001;42.622;23.194;2023-04-08T10:36:54;91358.09;;;14.68;55.51
5952;BME280;3001;42.622;23.194;2023-04-08T10:39:21;91353.22;;;14.78;55.21
5952;BME280;3001;42.622;23.194;2023-04-08T10:41:49;91349.81;;;15.10;54.11
5952;BME280;3001;42.622;23.194;2023-04-08T10:44:16;91351.13;;;15.28;54.44
5952;BME280;3001;42.622;23.194;2023-04-08T10:46:43;91341.66;;;15.60;52.37
5952;BME280;3001;42.622;23.194;2023-04-08T10:49:10;91337.72;;;15.65;51.92
5952;BME280;3001;42.622;23.194;2023-04-08T10:51:37;91336.19;;;15.76;51.97
5952;BME280;3001;42.622;23.194;2023-04-08T10:54:06;91333.41;;;15.97;52.21
5952;BME280;3001;42.622;23.194;2023-04-08T10:56:34;91330.69;;;16.33;54.17
5952;BME280;3001;42.622;23.194;2023-04-08T10:59:01;91343.78;;;16.72;49.59
5952;BME280;3001;42.622;23.194;2023-04-08T11:01:36;91336.44;;;16.78;47.64
5952;BME280;3001;42.622;23.194;2023-04-08T11:04:09;91331.19;;;16.78;48.44
5952;BME280;3001;42.622;23.194;2023-04-08T11:06:36;91321.31;;;17.02;51.21
5952;BME280;3001;42.622;23.194;2023-04-08T11:09:03;91324.03;;;17.21;48.83
5952;BME280;3001;42.622;23.194;2023-04-08T11:11:31;91318.28;;;17.16;48.80
5952;BME280;3001;42.622;23.194;2023-04-08T11:13:58;91324.56;;;17.27;48.54
5952;BME280;3001;42.622;23.194;2023-04-08T11:16:25;91320.72;;;17.24;48.80
5952;BME280;3001;42.622;23.194;2023-04-08T11:18:53;91327.75;;;17.05;49.65
5952;BME280;3001;42.622;23.194;2023-04-08T11:21:22;91302.44;;;17.12;49.15
5952;BME280;3001;42.622;23.194;2023-04-08T11:23:50;91308.94;;;17.03;49.19
5952;BME280;3001;42.622;23.194;2023-04-08T11:26:17;91305.94;;;17.16;50.23
5952;BME280;3001;42.622;23.194;2023-04-08T11:28:45;91305.00;;;17.40;46.99
5952;BME280;3001;42.622;23.194;2023-04-08T11:31:13;91291.59;;;17.60;47.63
5952;BME280;3001;42.622;23.194;2023-04-08T11:33:45;91307.34;;;17.94;48.25
5952;BME280;3001;42.622;23.194;2023-04-08T11:36:12;91310.75;;;18.14;45.36
5952;BME280;3001;42.622;23.194;2023-04-08T11:38:39;91302.19;;;18.17;45.83
5952;BME280;3001;42.622;23.194;2023-04-08T11:41:06;91296.75;;;18.44;48.38
5952;BME280;3001;42.622;23.194;2023-04-08T11:43:32;91287.53;;;18.54;48.61
5952;BME280;3001;42.622;23.194;2023-04-08T11:46:08;91309.41;;;18.58;44.91
5952;BME280;3001;42.622;23.194;2023-04-08T11:48:37;91296.63;;;18.37;45.06
5952;BME280;3001;42.622;23.194;2023-04-08T11:51:04;91296.25;;;18.20;46.35
5952;BME280;3001;42.622;23.194;2023-04-08T11:53:33;91292.94;;;18.23;44.88
5952;BME280;3001;42.622;23.194;2023-04-08T11:56:15;91291.97;;;18.31;44.81
5952;BME280;3001;42.622;23.194;2023-04-08T11:58:42;91302.94;;;17.64;36.06
5952;BME280;3001;42.622;23.194;2023-04-08T12:01:10;91285.69;;;17.82;40.09
5952;BME280;3001;42.622;23.194;2023-04-08T12:03:37;91297.84;;;17.71;36.93
5952;BME280;3001;42.622;23.194;2023-04-08T12:06:03;91297.03;;;17.51;35.21
5952;BME280;3001;42.622;23.194;2023-04-08T12:08:33;91297.19;;;16.81;32.47
5952;BME280;3001;42.622;23.194;2023-04-08T12:10:59;91292.66;;;16.66;35.92
5952;BME280;3001;42.622;23.194;2023-04-08T12:13:26;91285.00;;;16.18;34.46
5952;BME280;3001;42.622;23.194;2023-04-08T12:15:53;91283.19;;;16.07;35.69
5952;BME280;3001;42.622;23.194;2023-04-08T12:18:21;91279.38;;;15.65;37.49
5952;BME280;3001;42.622;23.194;2023-04-08T12:20:48;91287.66;;;15.55;37.63
5952;BME280;3001;42.622;23.194;2023-04-08T12:23:14;91283.94;;;15.20;40.62
5952;BME280;3001;42.622;23.194;2023-04-08T12:25:41;91284.59;;;15.17;41.42
5952;BME280;3001;42.622;23.194;2023-04-08T12:28:08;91286.38;;;15.25;40.90
5952;BME280;3001;42.622;23.194;2023-04-08T12:30:36;91284.94;;;14.92;40.86
5952;BME280;3001;42.622;23.194;2023-04-08T12:33:02;91288.28;;;14.68;43.72
5952;BME280;3001;42.622;23.194;2023-04-08T12:35:30;91276.16;;;14.64;46.63
5952;BME280;3001;42.622;23.194;2023-04-08T12:37:57;91284.88;;;14.56;50.15
5952;BME280;3001;42.622;23.194;2023-04-08T12:40:24;91285.22;;;14.66;50.73
5952;BME280;3001;42.622;23.194;2023-04-08T12:42:51;91279.13;;;14.74;51.60
5952;BME280;3001;42.622;23.194;2023-04-08T12:45:17;91281.13;;;14.89;51.55
5952;BME280;3001;42.622;23.194;2023-04-08T12:47:44;91278.16;;;15.27;51.92
5952;BME280;3001;42.622;23.194;2023-04-08T12:50:11;91284.94;;;15.52;50.01
5952;BME280;3001;42.622;23.194;2023-04-08T12:52:39;91285.41;;;15.54;48.24
5952;BME280;3001;42.622;23.194;2023-04-08T12:55:06;91282.22;;;15.48;49.70
5952;BME280;3001;42.622;23.194;2023-04-08T12:57:33;91279.81;;;15.67;49.12
5952;BME280;3001;42.622;23.194;2023-04-08T12:59:59;91278.22;;;15.90;49.41
5952;BME280;3001;42.622;23.194;2023-04-08T13:02:26;91279.03;;;16.06;48.80
5952;BME280;3001;42.622;23.194;2023-04-08T13:04:53;91274.00;;;16.13;47.67
5952;BME280;3001;42.622;23.194;2023-04-08T13:07:19;91281.31;;;16.07;47.31
5952;BME280;3001;42.622;23.194;2023-04-08T13:09:48;91287.88;;;16.01;45.54
5952;BME280;3001;42.622;23.194;2023-04-08T13:12:14;91294.84;;;15.70;46.78
5952;BME280;3001;42.622;23.194;2023-04-08T13:14:41;91301.84;;;15.66;46.02
5952;BME280;3001;42.622;23.194;2023-04-08T13:17:08;91280.16;;;15.42;44.95
5952;BME280;3001;42.622;23.194;2023-04-08T13:19:35;91285.59;;;15.49;47.32
5952;BME280;3001;42.622;23.194;2023-04-08T13:22:01;91279.38;;;15.53;46.80